Time;durP1;ratioP1;P1;durP2;ratioP2;P2;SDS_P1;SDS_P2;PMS_P1;PMS_P2;Temp;Humidity;BMP_temperature;BMP_pressure;BME280_temperature;BME280_humidity;BME280_pressure;Samples;Min_cycle;Max_cycle;Signal;HPM_P1;HPM_P2
2022/01/03 00:02:07;;;;;;;;;;;5.50;99.90;;;;;;4966880;28;19952;-83
2022/01/03 00:04:35;;;;;;;;;;;5.50;99.90;;;;;;4963725;28;19981;-83
2022/01/03 00:07:02;;;;;;;;;;;5.50;99.90;;;;;;4966030;28;19922;-83
2022/01/03 00:09:29;;;;;;;;;;;5.50;99.90;;;;;;4947535;28;19989;-83
2022/01/03 00:11:56;;;;;;;;;;;5.50;99.90;;;;;;4966160;28;19925;-83
2022/01/03 00:14:26;;;;;;;;;;;5.50;99.90;;;;;;4964735;28;20403;-83
2022/01/03 00:16:53;;;;;;;;;;;5.50;99.90;;;;;;4965826;28;20355;-83
2022/01/03 00:19:20;;;;;;;;;;;5.40;99.90;;;;;;4966151;28;19953;-83
2022/01/03 00:21:48;;;;;;;;;;;5.40;99.90;;;;;;4965304;28;19941;-83
2022/01/03 00:24:19;;;;;;;;;;;5.40;99.90;;;;;;4961654;28;19996;-83
2022/01/03 00:26:49;;;;;;;;;;;5.40;99.90;;;;;;4978438;28;20629;-83
2022/01/03 00:29:18;;;;;;;;;;;5.40;99.90;;;;;;4951934;28;19926;-83
2022/01/03 00:31:45;;;;;;;;;;;5.40;99.90;;;;;;4965912;28;19934;-83
2022/01/03 00:34:13;;;;;;;;;;;5.40;99.90;;;;;;4963974;28;19976;-83
2022/01/03 00:36:42;;;;;;;;;;;5.40;99.90;;;;;;4977047;28;20123;-83
2022/01/03 00:39:09;;;;;;;;;;;5.40;99.90;;;;;;4976742;28;19922;-83
2022/01/03 00:41:41;;;;;;;;;;;5.40;99.90;;;;;;4966464;28;19977;-83
2022/01/03 00:44:08;;;;;;;;;;;5.40;99.90;;;;;;4968943;28;19938;-84
2022/01/03 00:46:35;;;;;;;;;;;5.40;99.90;;;;;;4962592;28;20420;-82
2022/01/03 00:49:03;;;;;;;;;;;5.40;99.90;;;;;;4954546;28;19978;-83
2022/01/03 00:51:30;;;;;;;;;;;5.40;99.90;;;;;;4946840;28;20419;-83
2022/01/03 00:53:57;;;;;;;;;;;5.50;99.90;;;;;;4962362;28;19930;-82
2022/01/03 00:56:27;;;;;;;;;;;5.40;99.90;;;;;;4943082;28;20029;-82
2022/01/03 00:59:00;;;;;;;;;;;5.40;99.90;;;;;;4945570;28;20064;-82
2022/01/03 01:01:27;;;;;;;;;;;5.50;99.90;;;;;;4942784;28;19922;-82
2022/01/03 01:03:56;;;;;;;;;;;5.40;99.90;;;;;;4943851;28;20233;-82
2022/01/03 01:06:23;;;;;;;;;;;5.40;99.90;;;;;;4944719;28;19922;-83
2022/01/03 01:08:55;;;;;;;;;;;5.40;99.90;;;;;;4964754;28;19937;-83
2022/01/03 01:11:25;;;;;;;;;;;5.40;99.90;;;;;;4978277;28;19944;-83
2022/01/03 01:13:53;;;;;;;;;;;5.40;99.90;;;;;;4980825;28;19932;-83
2022/01/03 01:16:22;;;;;;;;;;;5.40;99.90;;;;;;4978532;28;20319;-83
2022/01/03 01:18:51;;;;;;;;;;;5.40;99.90;;;;;;4964175;28;20391;-82
2022/01/03 01:21:19;;;;;;;;;;;5.40;99.90;;;;;;4963182;28;19936;-83
2022/01/03 01:23:49;;;;;;;;;;;5.40;99.90;;;;;;4980114;28;20036;-83
2022/01/03 01:29:05;;;;;;;;;;;5.30;99.90;;;;;;4946590;28;19930;-83
2022/01/03 01:31:33;;;;;;;;;;;5.30;99.90;;;;;;1300773;28;10001999;-83
2022/01/03 01:34:02;;;;;;;;;;;5.30;99.90;;;;;;4962694;28;19922;-83
2022/01/03 01:36:29;;;;;;;;;;;5.40;99.90;;;;;;4943143;28;20005;-83
2022/01/03 01:39:05;;;;;;;;;;;5.30;99.90;;;;;;4979115;28;20359;-83
2022/01/03 01:41:38;;;;;;;;;;;5.40;99.90;;;;;;4964392;28;20681;-83
2022/01/03 01:44:07;;;;;;;;;;;5.30;99.90;;;;;;4978143;28;19926;-83
2022/01/03 01:46:34;;;;;;;;;;;5.30;99.90;;;;;;4983476;28;19933;-83
2022/01/03 01:49:07;;;;;;;;;;;5.30;99.90;;;;;;4981244;28;20021;-83
2022/01/03 01:51:37;;;;;;;;;;;5.20;99.90;;;;;;4965865;28;19985;-82
2022/01/03 01:54:06;;;;;;;;;;;5.20;99.90;;;;;;4969763;28;19922;-83
2022/01/03 01:56:43;;;;;;;;;;;5.20;99.90;;;;;;4966488;28;19926;-83
2022/01/03 01:59:18;;;;;;;;;;;5.10;99.90;;;;;;4963982;28;19950;-83
2022/01/03 02:01:48;;;;;;;;;;;5.10;99.90;;;;;;4982513;28;19929;-83
2022/01/03 02:04:24;;;;;;;;;;;5.10;99.90;;;;;;4984582;28;20328;-83
2022/01/03 02:06:54;;;;;;;;;;;5.00;99.90;;;;;;4982553;28;19990;-83
2022/01/03 02:09:29;;;;;;;;;;;5.00;99.90;;;;;;4963341;28;20617;-84
2022/01/03 02:11:57;;;;;;;;;;;5.00;99.90;;;;;;4965566;28;20005;-83
2022/01/03 02:14:37;;;;;;;;;;;5.00;99.90;;;;;;4959004;28;19923;-83
2022/01/03 02:17:08;;;;;;;;;;;5.00;99.90;;;;;;4966686;28;19925;-83
2022/01/03 02:19:37;;;;;;;;;;;5.00;99.90;;;;;;4967318;28;19989;-84
2022/01/03 02:22:05;;;;;;;;;;;5.00;99.90;;;;;;4966268;28;19937;-84
2022/01/03 02:24:40;;;;;;;;;;;4.90;99.90;;;;;;4976907;28;19965;-83
2022/01/03 02:27:07;;;;;;;;;;;4.90;99.90;;;;;;4960706;28;19922;-83
2022/01/03 02:29:34;;;;;;;;;;;4.90;99.90;;;;;;4983240;28;19922;-83
2022/01/03 02:32:02;;;;;;;;;;;4.90;99.90;;;;;;4966463;28;20024;-83
2022/01/03 02:34:29;;;;;;;;;;;4.90;99.90;;;;;;4963029;28;19926;-83
2022/01/03 02:36:58;;;;;;;;;;;4.90;99.90;;;;;;4979056;28;19957;-83
2022/01/03 02:39:25;;;;;;;;;;;5.00;99.90;;;;;;4970027;28;19957;-83
2022/01/03 02:41:52;;;;;;;;;;;5.00;99.90;;;;;;4978969;28;19990;-83
2022/01/03 02:44:19;;;;;;;;;;;5.00;99.90;;;;;;4964836;28;19972;-83
2022/01/03 02:46:46;;;;;;;;;;;5.00;99.90;;;;;;4964643;28;19928;-83
2022/01/03 02:49:14;;;;;;;;;;;5.00;99.90;;;;;;4961774;28;19923;-83
2022/01/03 02:51:44;;;;;;;;;;;5.10;99.90;;;;;;4968902;28;20068;-83
2022/01/03 02:54:13;;;;;;;;;;;5.10;99.90;;;;;;4978706;28;19937;-84
2022/01/03 02:56:42;;;;;;;;;;;5.10;99.90;;;;;;4964912;28;19944;-83
2022/01/03 02:59:13;;;;;;;;;;;5.10;99.90;;;;;;4976175;28;19930;-84
2022/01/03 03:01:41;;;;;;;;;;;5.10;99.90;;;;;;4964684;28;19922;-83
2022/01/03 03:04:09;;;;;;;;;;;5.10;99.90;;;;;;4980814;28;19929;-83
2022/01/03 03:06:36;;;;;;;;;;;5.20;99.90;;;;;;4966505;28;19976;-83
2022/01/03 03:09:05;;;;;;;;;;;5.20;99.90;;;;;;4981414;28;19926;-83
2022/01/03 03:11:32;;;;;;;;;;;5.20;99.90;;;;;;4963592;28;19937;-83
2022/01/03 03:13:59;;;;;;;;;;;5.20;99.90;;;;;;4955568;28;19958;-83
2022/01/03 03:16:26;;;;;;;;;;;5.20;99.90;;;;;;4981532;28;19933;-83
2022/01/03 03:18:53;;;;;;;;;;;5.20;99.90;;;;;;4962507;28;19926;-83
2022/01/03 03:21:20;;;;;;;;;;;5.20;99.90;;;;;;4950434;28;20375;-83
2022/01/03 03:23:47;;;;;;;;;;;5.20;99.90;;;;;;4982469;28;20059;-83
2022/01/03 03:26:16;;;;;;;;;;;5.20;99.90;;;;;;4964600;28;19988;-83
2022/01/03 03:28:45;;;;;;;;;;;5.10;99.90;;;;;;4981837;28;19925;-83
2022/01/03 03:31:27;;;;;;;;;;;5.10;99.90;;;;;;1821727;28;10021909;-82
2022/01/03 03:33:54;;;;;;;;;;;5.10;99.90;;;;;;4617562;28;10002034;-82
2022/01/03 03:36:21;;;;;;;;;;;5.10;99.90;;;;;;4965270;28;19922;-83
2022/01/03 03:38:48;;;;;;;;;;;5.10;99.90;;;;;;4963847;28;20378;-83
2022/01/03 03:41:17;;;;;;;;;;;5.00;99.90;;;;;;4982260;28;19977;-83
2022/01/03 03:43:48;;;;;;;;;;;5.00;99.90;;;;;;4981510;28;20032;-83
2022/01/03 03:46:15;;;;;;;;;;;5.00;99.90;;;;;;4972137;28;20035;-83
2022/01/03 03:48:42;;;;;;;;;;;4.90;99.90;;;;;;4961763;28;20372;-83
2022/01/03 03:51:14;;;;;;;;;;;4.90;99.90;;;;;;4958069;28;20013;-83
2022/01/03 03:53:42;;;;;;;;;;;4.90;99.90;;;;;;4962221;28;20001;-84
2022/01/03 03:56:10;;;;;;;;;;;4.90;99.90;;;;;;4963939;28;20426;-83
2022/01/03 03:58:37;;;;;;;;;;;4.90;99.90;;;;;;4958719;28;19927;-83
2022/01/03 04:01:04;;;;;;;;;;;4.90;99.90;;;;;;4967389;28;20505;-83
2022/01/03 04:03:42;;;;;;;;;;;4.90;99.90;;;;;;4978840;28;19923;-83
2022/01/03 04:06:10;;;;;;;;;;;5.00;99.90;;;;;;4978153;28;19973;-83
2022/01/03 04:08:38;;;;;;;;;;;5.00;99.90;;;;;;4964334;28;19922;-84
2022/01/03 04:11:05;;;;;;;;;;;5.00;99.90;;;;;;4966043;28;20017;-84
2022/01/03 04:13:34;;;;;;;;;;;5.10;99.90;;;;;;4976657;28;19922;-84
2022/01/03 04:16:03;;;;;;;;;;;5.10;99.90;;;;;;4980555;28;19948;-84
2022/01/03 04:18:30;;;;;;;;;;;5.10;99.90;;;;;;4964737;28;20056;-83
2022/01/03 04:20:57;;;;;;;;;;;5.10;99.90;;;;;;4977415;28;20012;-83
2022/01/03 04:23:24;;;;;;;;;;;5.10;99.90;;;;;;4981419;28;19926;-84
2022/01/03 04:25:52;;;;;;;;;;;5.10;99.90;;;;;;4979157;28;19926;-83
2022/01/03 04:28:19;;;;;;;;;;;5.10;99.90;;;;;;4988164;28;19925;-83
2022/01/03 04:30:46;;;;;;;;;;;5.10;99.90;;;;;;4965566;28;19941;-84
2022/01/03 04:33:17;;;;;;;;;;;5.10;99.90;;;;;;4964813;28;19952;-83
2022/01/03 04:35:43;;;;;;;;;;;5.10;99.90;;;;;;4969065;28;19925;-83
2022/01/03 04:38:10;;;;;;;;;;;5.10;99.90;;;;;;4972965;28;20021;-83
2022/01/03 04:40:37;;;;;;;;;;;5.10;99.90;;;;;;4980338;28;20270;-83
2022/01/03 04:43:05;;;;;;;;;;;5.10;99.90;;;;;;4981984;28;19930;-84
2022/01/03 04:45:32;;;;;;;;;;;5.10;99.90;;;;;;4965450;28;19960;-83
2022/01/03 04:47:59;;;;;;;;;;;5.20;99.90;;;;;;4963759;28;19980;-83
2022/01/03 04:50:26;;;;;;;;;;;5.20;99.90;;;;;;4943495;28;19950;-83
2022/01/03 04:52:53;;;;;;;;;;;5.20;99.90;;;;;;4958869;28;19926;-83
2022/01/03 04:55:20;;;;;;;;;;;5.20;99.90;;;;;;4946205;28;20061;-84
2022/01/03 04:57:47;;;;;;;;;;;5.20;99.90;;;;;;4959377;28;20013;-84
2022/01/03 05:00:16;;;;;;;;;;;5.10;99.90;;;;;;4959345;28;19922;-83
2022/01/03 05:02:43;;;;;;;;;;;5.20;99.90;;;;;;4959071;28;22061;-83
2022/01/03 05:05:11;;;;;;;;;;;5.20;99.90;;;;;;4946306;28;19923;-83
2022/01/03 05:07:39;;;;;;;;;;;5.20;99.90;;;;;;4957865;28;19956;-84
2022/01/03 05:10:06;;;;;;;;;;;5.20;99.90;;;;;;4940588;28;20260;-84
2022/01/03 05:12:33;;;;;;;;;;;5.20;99.90;;;;;;4943831;28;19922;-83
2022/01/03 05:15:01;;;;;;;;;;;5.20;99.90;;;;;;4946370;28;19970;-84
2022/01/03 05:17:31;;;;;;;;;;;5.30;99.90;;;;;;4955557;28;19974;-83
2022/01/03 05:19:59;;;;;;;;;;;5.30;99.90;;;;;;4942917;28;20018;-83
2022/01/03 05:22:27;;;;;;;;;;;5.30;99.90;;;;;;4940763;28;19927;-83
2022/01/03 05:24:53;;;;;;;;;;;5.30;99.90;;;;;;4960579;28;19934;-83
2022/01/03 05:27:21;;;;;;;;;;;5.30;99.90;;;;;;4960713;28;19923;-84
2022/01/03 05:30:08;;;;;;;;;;;5.30;99.90;;;;;;4504913;28;9999885;-83
2022/01/03 05:32:35;;;;;;;;;;;5.30;99.90;;;;;;2731197;28;10002150;-83
2022/01/03 05:35:03;;;;;;;;;;;5.20;99.90;;;;;;4985948;28;20360;-83
2022/01/03 05:37:30;;;;;;;;;;;5.30;99.90;;;;;;4968471;28;20328;-83
2022/01/03 05:39:57;;;;;;;;;;;5.20;99.90;;;;;;4984113;28;19922;-83
2022/01/03 05:42:26;;;;;;;;;;;5.20;99.90;;;;;;4978373;28;20525;-83
2022/01/03 05:44:53;;;;;;;;;;;5.20;99.90;;;;;;4964518;28;20294;-83
2022/01/03 05:47:20;;;;;;;;;;;5.20;99.90;;;;;;4962658;28;19969;-83
2022/01/03 05:49:48;;;;;;;;;;;5.20;99.90;;;;;;4984796;28;20013;-83
2022/01/03 05:52:15;;;;;;;;;;;5.20;99.90;;;;;;4970766;28;19922;-83
2022/01/03 05:54:41;;;;;;;;;;;5.20;99.90;;;;;;4967110;28;19926;-83
2022/01/03 05:57:08;;;;;;;;;;;5.20;99.90;;;;;;4966340;28;19988;-83
2022/01/03 05:59:36;;;;;;;;;;;5.20;99.90;;;;;;4964320;28;19976;-83
2022/01/03 06:02:04;;;;;;;;;;;5.20;99.90;;;;;;4968612;28;19922;-83
2022/01/03 06:04:52;;;;;;;;;;;5.20;99.90;;;;;;4981435;28;19930;-83
2022/01/03 06:07:20;;;;;;;;;;;5.10;99.90;;;;;;4982389;28;19934;-83
2022/01/03 06:09:49;;;;;;;;;;;5.10;99.90;;;;;;4968960;28;19950;-83
2022/01/03 06:12:17;;;;;;;;;;;5.10;99.90;;;;;;4979831;28;20016;-83
2022/01/03 06:14:48;;;;;;;;;;;5.10;99.90;;;;;;4966044;28;19939;-83
2022/01/03 06:17:15;;;;;;;;;;;5.10;99.90;;;;;;4965551;28;20037;-83
2022/01/03 06:19:45;;;;;;;;;;;5.10;99.90;;;;;;4967042;28;19922;-83
2022/01/03 06:22:13;;;;;;;;;;;5.00;99.90;;;;;;4965861;28;19925;-82
2022/01/03 06:24:43;;;;;;;;;;;5.00;99.90;;;;;;4973281;28;19930;-83
2022/01/03 06:27:11;;;;;;;;;;;4.90;99.90;;;;;;4963965;28;20373;-83
2022/01/03 06:29:38;;;;;;;;;;;4.90;99.90;;;;;;4966399;28;20475;-83
2022/01/03 06:32:05;;;;;;;;;;;5.00;99.90;;;;;;4963805;28;19923;-83
2022/01/03 06:34:32;;;;;;;;;;;4.90;99.90;;;;;;4980028;28;19949;-83
2022/01/03 06:37:00;;;;;;;;;;;4.90;99.90;;;;;;4969324;28;20379;-83
2022/01/03 06:39:30;;;;;;;;;;;4.90;99.90;;;;;;4981804;28;19933;-83
2022/01/03 06:41:57;;;;;;;;;;;4.90;99.90;;;;;;4968282;28;19932;-83
2022/01/03 06:44:25;;;;;;;;;;;5.00;99.90;;;;;;4981804;28;19929;-83
2022/01/03 06:46:52;;;;;;;;;;;5.00;99.90;;;;;;4966693;28;20705;-83
2022/01/03 06:49:19;;;;;;;;;;;5.00;99.90;;;;;;4979311;28;19922;-83
2022/01/03 06:51:45;;;;;;;;;;;5.00;99.90;;;;;;4982561;28;20324;-83
2022/01/03 06:54:14;;;;;;;;;;;5.00;99.90;;;;;;4961613;28;19936;-83
2022/01/03 06:56:49;;;;;;;;;;;5.00;99.90;;;;;;4978554;28;19933;-83
2022/01/03 06:59:16;;;;;;;;;;;5.00;99.90;;;;;;4960802;28;19937;-83
2022/01/03 07:01:44;;;;;;;;;;;5.00;99.90;;;;;;4981143;28;19925;-83
2022/01/03 07:04:12;;;;;;;;;;;5.00;99.90;;;;;;4963382;28;19926;-83
2022/01/03 07:06:39;;;;;;;;;;;5.00;99.90;;;;;;4966973;28;19926;-83
2022/01/03 07:09:07;;;;;;;;;;;5.10;99.90;;;;;;4966164;28;19930;-83
2022/01/03 07:11:34;;;;;;;;;;;5.10;99.90;;;;;;4968013;28;19921;-83
2022/01/03 07:18:55;;;;;;;;;;;5.10;99.90;;;;;;4951521;28;19922;-83
2022/01/03 07:19:38;;;;;;;;;;;5.10;99.90;;;;;;4981924;28;19926;-83
2022/01/03 07:22:07;;;;;;;;;;;5.10;99.90;;;;;;4968012;28;19926;-83
2022/01/03 07:24:35;;;;;;;;;;;5.10;99.90;;;;;;4965196;28;19937;-83
2022/01/03 07:27:07;;;;;;;;;;;5.10;99.90;;;;;;4967966;28;19922;-83
2022/01/03 07:29:34;;;;;;;;;;;5.10;99.90;;;;;;4897595;28;19933;-83
2022/01/03 07:32:01;;;;;;;;;;;5.10;99.90;;;;;;1346246;28;10001805;-83
2022/01/03 07:34:28;;;;;;;;;;;5.10;99.90;;;;;;4948829;28;19930;-83
2022/01/03 07:36:56;;;;;;;;;;;5.10;99.90;;;;;;4962762;28;19932;-83
2022/01/03 07:39:22;;;;;;;;;;;5.20;99.90;;;;;;4948406;28;19977;-83
2022/01/03 07:41:49;;;;;;;;;;;5.20;99.90;;;;;;4946192;28;19922;-83
2022/01/03 07:44:16;;;;;;;;;;;5.20;99.90;;;;;;4965066;28;19930;-83
2022/01/03 07:46:43;;;;;;;;;;;5.20;99.90;;;;;;4936592;28;19930;-83
2022/01/03 07:49:10;;;;;;;;;;;5.20;99.90;;;;;;4959521;28;19949;-83
2022/01/03 07:51:37;;;;;;;;;;;5.20;99.90;;;;;;4953036;28;20262;-83
2022/01/03 07:54:04;;;;;;;;;;;5.20;99.90;;;;;;4961105;28;19922;-83
2022/01/03 07:56:32;;;;;;;;;;;5.10;99.90;;;;;;4964887;28;19928;-83
2022/01/03 07:58:59;;;;;;;;;;;5.20;99.90;;;;;;4965226;28;19929;-83
2022/01/03 08:01:26;;;;;;;;;;;5.20;99.90;;;;;;4958352;28;19921;-83
2022/01/03 08:03:53;;;;;;;;;;;5.20;99.90;;;;;;4980591;28;19979;-83
2022/01/03 08:06:39;;;;;;;;;;;5.10;99.90;;;;;;4958390;28;20021;-83
2022/01/03 08:09:06;;;;;;;;;;;5.20;99.90;;;;;;4969668;28;20025;-83
2022/01/03 08:11:33;;;;;;;;;;;5.20;99.90;;;;;;4961092;28;19953;-83
2022/01/03 08:14:00;;;;;;;;;;;5.20;99.90;;;;;;4968590;28;19922;-83
2022/01/03 08:16:27;;;;;;;;;;;5.10;99.90;;;;;;4960421;28;19922;-83
2022/01/03 08:18:54;;;;;;;;;;;5.20;99.90;;;;;;4982112;28;19926;-82
2022/01/03 08:21:20;;;;;;;;;;;5.20;99.90;;;;;;4963543;28;19926;-82
2022/01/03 08:23:47;;;;;;;;;;;5.20;99.90;;;;;;4966103;28;20029;-82
2022/01/03 08:26:14;;;;;;;;;;;5.20;99.90;;;;;;4964191;28;20001;-82
2022/01/03 08:28:43;;;;;;;;;;;5.20;99.90;;;;;;4964510;28;19949;-82
2022/01/03 08:31:10;;;;;;;;;;;5.20;99.90;;;;;;4978021;28;20025;-83
2022/01/03 08:33:37;;;;;;;;;;;5.20;99.90;;;;;;4966535;28;19937;-82
2022/01/03 08:36:04;;;;;;;;;;;5.20;99.90;;;;;;4966078;28;19976;-82
2022/01/03 08:38:31;;;;;;;;;;;5.30;99.90;;;;;;4964960;28;19922;-82
2022/01/03 08:40:58;;;;;;;;;;;5.30;99.90;;;;;;4981784;28;19922;-82
2022/01/03 08:43:25;;;;;;;;;;;5.30;99.90;;;;;;4966371;28;19933;-82
2022/01/03 08:45:51;;;;;;;;;;;5.30;99.90;;;;;;4963540;28;19929;-82
2022/01/03 08:48:19;;;;;;;;;;;5.30;99.90;;;;;;4965900;28;20283;-82
2022/01/03 08:50:45;;;;;;;;;;;5.30;99.90;;;;;;4964726;28;19984;-82
2022/01/03 08:53:12;;;;;;;;;;;5.30;99.90;;;;;;4979554;28;19937;-82
2022/01/03 08:55:40;;;;;;;;;;;5.30;99.90;;;;;;4966955;28;20289;-82
2022/01/03 08:58:07;;;;;;;;;;;5.30;99.90;;;;;;4964471;28;20371;-82
2022/01/03 09:00:34;;;;;;;;;;;5.40;99.90;;;;;;4968845;28;19922;-82
2022/01/03 09:03:00;;;;;;;;;;;5.30;99.90;;;;;;4972523;28;19956;-82
2022/01/03 09:05:27;;;;;;;;;;;5.40;99.90;;;;;;4970138;28;19926;-82
2022/01/03 09:07:54;;;;;;;;;;;5.30;99.90;;;;;;4969090;28;20245;-82
2022/01/03 09:10:21;;;;;;;;;;;5.30;99.90;;;;;;4969481;28;19973;-82
2022/01/03 09:12:48;;;;;;;;;;;5.30;99.90;;;;;;4967368;28;19922;-82
2022/01/03 09:15:15;;;;;;;;;;;5.30;99.90;;;;;;4983523;28;20425;-82
2022/01/03 09:17:42;;;;;;;;;;;5.30;99.90;;;;;;4963696;28;19930;-82
2022/01/03 09:20:09;;;;;;;;;;;5.40;99.90;;;;;;4984343;28;20364;-82
2022/01/03 09:22:41;;;;;;;;;;;5.30;99.90;;;;;;4979437;28;19976;-82
2022/01/03 09:30:43;;;;;;;;;;;5.30;99.90;;;;;;3050331;28;10001149;-83
2022/01/03 09:33:10;;;;;;;;;;;5.40;99.90;;;;;;3942534;28;10001763;-82
2022/01/03 09:35:37;;;;;;;;;;;5.40;99.90;;;;;;4969020;28;19930;-82
2022/01/03 09:38:03;;;;;;;;;;;5.40;99.90;;;;;;4972909;28;19976;-82
2022/01/03 09:40:31;;;;;;;;;;;5.40;99.90;;;;;;4967713;28;19940;-82
2022/01/03 09:42:59;;;;;;;;;;;5.40;99.90;;;;;;4966768;28;19929;-82
2022/01/03 09:45:27;;;;;;;;;;;5.40;99.90;;;;;;4980141;28;19930;-82
2022/01/03 09:47:55;;;;;;;;;;;5.40;99.90;;;;;;4967094;28;19926;-82
2022/01/03 09:50:22;;;;;;;;;;;5.40;99.90;;;;;;4952483;28;19922;-82
2022/01/03 09:52:50;;;;;;;;;;;5.50;99.90;;;;;;4963305;28;19996;-82
2022/01/03 09:55:18;;;;;;;;;;;5.40;99.90;;;;;;4964056;28;20016;-82
2022/01/03 09:57:46;;;;;;;;;;;5.50;99.90;;;;;;4948372;28;20032;-82
2022/01/03 10:00:14;;;;;;;;;;;5.50;99.90;;;;;;4981621;28;19922;-82
2022/01/03 10:02:43;;;;;;;;;;;5.40;99.90;;;;;;4980626;28;19926;-82
2022/01/03 10:05:11;;;;;;;;;;;5.40;99.90;;;;;;4983346;28;19940;-82
2022/01/03 10:07:39;;;;;;;;;;;5.40;99.90;;;;;;4985597;28;19989;-82
2022/01/03 10:10:07;;;;;;;;;;;5.40;99.90;;;;;;4980413;28;19930;-82
2022/01/03 10:12:34;;;;;;;;;;;5.40;99.90;;;;;;4981063;28;19922;-82
2022/01/03 10:15:01;;;;;;;;;;;5.40;99.90;;;;;;4983367;28;20020;-82
2022/01/03 10:17:28;;;;;;;;;;;5.40;99.90;;;;;;4959452;28;19945;-82
2022/01/03 10:19:56;;;;;;;;;;;5.40;99.90;;;;;;4983821;28;20387;-82
2022/01/03 10:22:24;;;;;;;;;;;5.40;99.90;;;;;;4967835;28;19926;-82
2022/01/03 10:24:51;;;;;;;;;;;5.40;99.90;;;;;;4964711;28;20025;-82
2022/01/03 10:27:19;;;;;;;;;;;5.40;99.90;;;;;;4956251;28;19977;-82
2022/01/03 10:29:56;;;;;;;;;;;5.50;99.90;;;;;;4984356;28;19930;-82
2022/01/03 10:32:30;;;;;;;;;;;5.40;99.90;;;;;;4949672;28;19934;-82
2022/01/03 10:34:58;;;;;;;;;;;5.50;99.90;;;;;;4967329;28;19971;-82
2022/01/03 10:37:36;;;;;;;;;;;5.50;99.90;;;;;;4982010;28;19932;-82
2022/01/03 10:40:16;;;;;;;;;;;5.50;99.90;;;;;;4953958;28;19994;-82
2022/01/03 10:42:43;;;;;;;;;;;5.50;99.90;;;;;;4943689;28;20005;-82
2022/01/03 10:45:10;;;;;;;;;;;5.50;99.90;;;;;;4948437;28;20008;-82
2022/01/03 10:47:37;;;;;;;;;;;5.50;99.90;;;;;;4947096;28;20479;-82
2022/01/03 10:50:14;;;;;;;;;;;5.50;99.90;;;;;;4945638;28;19957;-82
2022/01/03 10:52:41;;;;;;;;;;;5.60;99.90;;;;;;4957076;28;20332;-82
2022/01/03 10:55:11;;;;;;;;;;;5.60;99.90;;;;;;4947303;28;19930;-82
2022/01/03 10:57:49;;;;;;;;;;;5.60;99.90;;;;;;4947364;28;19926;-82
2022/01/03 11:00:18;;;;;;;;;;;5.60;99.90;;;;;;4941492;28;19933;-82
2022/01/03 11:03:07;;;;;;;;;;;5.60;99.90;;;;;;4958209;28;20034;-82
2022/01/03 11:05:38;;;;;;;;;;;5.60;99.90;;;;;;4943242;28;19922;-82
2022/01/03 11:10:44;;;;;;;;;;;5.60;99.90;;;;;;4965031;28;19945;-82
2022/01/03 11:13:13;;;;;;;;;;;5.60;99.90;;;;;;4967641;28;19926;-82
2022/01/03 11:15:41;;;;;;;;;;;5.60;99.90;;;;;;4967004;28;20408;-82
2022/01/03 11:18:12;;;;;;;;;;;5.60;99.90;;;;;;4977102;28;20217;-82
2022/01/03 11:20:40;;;;;;;;;;;5.60;99.90;;;;;;4963171;28;20249;-82
2022/01/03 11:23:07;;;;;;;;;;;5.70;99.90;;;;;;4970090;28;20008;-82
2022/01/03 11:25:34;;;;;;;;;;;5.70;99.90;;;;;;4966490;28;19934;-81
2022/01/03 11:28:02;;;;;;;;;;;5.60;99.90;;;;;;4970437;28;19996;-82
2022/01/03 11:30:38;;;;;;;;;;;5.70;99.90;;;;;;3283031;28;10020607;-82
2022/01/03 11:33:08;;;;;;;;;;;5.70;99.90;;;;;;3251853;28;10002086;-82
2022/01/03 11:35:35;;;;;;;;;;;5.70;99.90;;;;;;4966449;28;19981;-82
2022/01/03 11:38:06;;;;;;;;;;;5.60;99.90;;;;;;4980200;28;19938;-82
2022/01/03 11:40:34;;;;;;;;;;;5.60;99.90;;;;;;4964060;28;19921;-82
2022/01/03 11:43:01;;;;;;;;;;;5.60;99.90;;;;;;4982590;28;19930;-82
2022/01/03 11:45:28;;;;;;;;;;;5.60;99.90;;;;;;4981894;28;20016;-82
2022/01/03 11:47:56;;;;;;;;;;;5.60;99.90;;;;;;4978723;28;19965;-82
2022/01/03 11:50:23;;;;;;;;;;;5.60;99.90;;;;;;4980138;28;20005;-82
2022/01/03 11:52:50;;;;;;;;;;;5.70;99.90;;;;;;4978724;28;19933;-82
2022/01/03 11:55:17;;;;;;;;;;;5.70;99.90;;;;;;4962572;28;19922;-82
2022/01/03 12:06:03;;;;;;;;;;;5.70;99.90;;;;;;4965966;28;20040;-82
2022/01/03 12:08:34;;;;;;;;;;;5.70;99.90;;;;;;4964649;28;20307;-82
2022/01/03 12:11:21;;;;;;;;;;;5.70;99.90;;;;;;4963142;28;19926;-82
2022/01/03 12:13:48;;;;;;;;;;;5.70;99.90;;;;;;4980367;28;19923;-82
2022/01/03 12:16:15;;;;;;;;;;;5.70;99.90;;;;;;4980129;28;19968;-82
2022/01/03 12:18:56;;;;;;;;;;;5.70;99.90;;;;;;4969025;28;19922;-82
2022/01/03 12:21:41;;;;;;;;;;;5.70;99.90;;;;;;4965926;28;20382;-82
2022/01/03 12:24:27;;;;;;;;;;;5.70;99.90;;;;;;4963591;28;20580;-82
2022/01/03 12:27:10;;;;;;;;;;;5.70;99.90;;;;;;4976076;28;19922;-82
2022/01/03 12:29:58;;;;;;;;;;;5.70;99.90;;;;;;4963824;28;20080;-81
2022/01/03 12:32:38;;;;;;;;;;;5.80;99.90;;;;;;4965918;28;19933;-82
2022/01/03 12:35:05;;;;;;;;;;;5.80;99.90;;;;;;4981234;28;19937;-82
2022/01/03 12:37:33;;;;;;;;;;;5.90;99.90;;;;;;4982493;28;20224;-82
2022/01/03 12:40:06;;;;;;;;;;;5.90;99.90;;;;;;4962543;28;19956;-82
2022/01/03 12:42:39;;;;;;;;;;;6.00;99.90;;;;;;4978733;28;19922;-82
2022/01/03 12:45:06;;;;;;;;;;;5.90;99.90;;;;;;4966404;28;19922;-82
2022/01/03 12:47:37;;;;;;;;;;;6.00;99.90;;;;;;4965090;28;20012;-82
2022/01/03 12:50:28;;;;;;;;;;;6.00;99.90;;;;;;4961551;28;20017;-82
2022/01/03 12:52:57;;;;;;;;;;;6.00;99.90;;;;;;4959640;28;20331;-82
2022/01/03 12:55:39;;;;;;;;;;;6.10;99.90;;;;;;4960956;28;20354;-82
2022/01/03 12:58:18;;;;;;;;;;;6.10;99.90;;;;;;4966543;28;19929;-82
2022/01/03 13:00:48;;;;;;;;;;;6.10;99.90;;;;;;4976596;28;20432;-82
2022/01/03 13:03:24;;;;;;;;;;;6.10;99.90;;;;;;4966902;28;19933;-82
2022/01/03 13:06:06;;;;;;;;;;;6.10;99.90;;;;;;4964144;28;19961;-83
2022/01/03 13:08:34;;;;;;;;;;;6.10;99.90;;;;;;4980761;28;19969;-82
2022/01/03 13:11:02;;;;;;;;;;;6.10;99.90;;;;;;4964947;28;20375;-82
2022/01/03 13:13:28;;;;;;;;;;;6.10;99.90;;;;;;4964207;28;19933;-82
2022/01/03 13:15:56;;;;;;;;;;;6.10;99.90;;;;;;4964092;28;19929;-82
2022/01/03 13:18:22;;;;;;;;;;;6.00;99.90;;;;;;4980117;28;19922;-82
2022/01/03 13:20:59;;;;;;;;;;;6.00;99.90;;;;;;4966232;28;19922;-82
2022/01/03 13:23:26;;;;;;;;;;;6.00;99.90;;;;;;4980040;28;19930;-82
2022/01/03 13:26:03;;;;;;;;;;;5.90;99.90;;;;;;4977168;28;20012;-82
2022/01/03 13:28:29;;;;;;;;;;;5.90;99.90;;;;;;4979408;28;19937;-82
2022/01/03 13:31:07;;;;;;;;;;;5.80;99.90;;;;;;2653910;28;10001673;-82
2022/01/03 13:33:34;;;;;;;;;;;5.80;99.90;;;;;;3920068;28;10001031;-82
2022/01/03 13:36:06;;;;;;;;;;;5.80;99.90;;;;;;4953923;28;19930;-82
2022/01/03 13:38:34;;;;;;;;;;;5.70;99.90;;;;;;4945711;28;20314;-82
2022/01/03 13:41:13;;;;;;;;;;;5.70;99.90;;;;;;4954509;28;19997;-82
2022/01/03 13:43:42;;;;;;;;;;;5.70;99.90;;;;;;4948681;28;19929;-82
2022/01/03 13:51:21;;;;;;;;;;;5.70;99.90;;;;;;4947163;28;20018;-82
2022/01/03 13:53:51;;;;;;;;;;;5.70;99.90;;;;;;4936156;28;19959;-82
2022/01/03 13:56:19;;;;;;;;;;;5.70;99.90;;;;;;4962303;28;20324;-82
2022/01/03 13:58:46;;;;;;;;;;;5.80;99.90;;;;;;4964921;28;19993;-81
2022/01/03 14:01:13;;;;;;;;;;;5.80;99.90;;;;;;4949138;28;19930;-81
2022/01/03 14:03:43;;;;;;;;;;;5.80;99.90;;;;;;4946817;28;19926;-81
2022/01/03 14:06:18;;;;;;;;;;;5.90;99.90;;;;;;4948603;28;20025;-81
2022/01/03 14:08:49;;;;;;;;;;;5.90;99.90;;;;;;4948306;28;20369;-81
2022/01/03 14:11:18;;;;;;;;;;;5.90;99.90;;;;;;4931129;29;19922;-81
2022/01/03 14:13:45;;;;;;;;;;;5.90;99.90;;;;;;4949325;28;19993;-81
2022/01/03 14:16:19;;;;;;;;;;;5.90;99.90;;;;;;4956737;28;20241;-81
2022/01/03 14:18:50;;;;;;;;;;;5.90;99.90;;;;;;4946591;28;20016;-81
2022/01/03 14:21:31;;;;;;;;;;;5.90;99.90;;;;;;4950103;28;20100;-82
2022/01/03 14:24:08;;;;;;;;;;;5.90;99.90;;;;;;4962600;28;19938;-81
2022/01/03 14:26:35;;;;;;;;;;;5.90;99.90;;;;;;4937419;28;19926;-81
2022/01/03 14:29:12;;;;;;;;;;;5.90;99.90;;;;;;4963984;28;20347;-81
2022/01/03 14:31:45;;;;;;;;;;;5.90;99.90;;;;;;4939834;28;20352;-81
2022/01/03 14:34:42;;;;;;;;;;;5.80;99.90;;;;;;4946683;28;20441;-81
2022/01/03 14:37:21;;;;;;;;;;;5.80;99.90;;;;;;4942049;28;20005;-81
2022/01/03 14:39:49;;;;;;;;;;;5.80;99.90;;;;;;4946174;28;19957;-81
2022/01/03 14:42:31;;;;;;;;;;;5.70;99.90;;;;;;4941105;28;19927;-81
2022/01/03 14:45:08;;;;;;;;;;;5.70;99.90;;;;;;4947503;28;19922;-81
2022/01/03 14:47:35;;;;;;;;;;;5.60;99.90;;;;;;4946329;28;19941;-81
2022/01/03 14:50:05;;;;;;;;;;;5.70;99.90;;;;;;4960633;28;19922;-81
2022/01/03 14:52:34;;;;;;;;;;;5.70;99.90;;;;;;4957845;28;19922;-81
2022/01/03 14:55:01;;;;;;;;;;;5.60;99.90;;;;;;4938042;28;20264;-81
2022/01/03 14:57:29;;;;;;;;;;;5.70;99.90;;;;;;4944265;28;19923;-81
2022/01/03 14:59:57;;;;;;;;;;;5.70;99.90;;;;;;4941956;28;19923;-81
2022/01/03 15:02:25;;;;;;;;;;;5.70;99.90;;;;;;4947410;28;19934;-81
2022/01/03 15:04:54;;;;;;;;;;;5.70;99.90;;;;;;4947839;28;19942;-81
2022/01/03 15:07:25;;;;;;;;;;;5.70;99.90;;;;;;4957238;28;19926;-81
2022/01/03 15:09:52;;;;;;;;;;;5.80;99.90;;;;;;4940469;28;19996;-81